FDB765 EDDS-EDDF
Flight info
| Callsign | FDB765 |
|---|---|
| Flight time | 0h 38m |
| Altitude | 22000 |
| Route | ETASA2H/07 ETASA T163 SPESA SPESA4B |
| Aircraft | B738/M-SDE2E3FGHIRWXY/LB1 |
Departure
| Time | 2026-05-04 15:30 |
|---|---|
| Airport | Stuttgart Airport (EDDS) |
Arrival
| Time | 2026-05-04 16:08 |
|---|---|
| Airport | Frankfurt Main Airport (EDDF) |
| Time | Latitude | Longitude | Altitude | Speed | Heading |
|---|---|---|---|---|---|
| 2026-05-04 15:07 | 48.68899 | 9.19428 | 1309 ft | 0 kts | 345° |
| 2026-05-04 15:20 | 48.68891 | 9.19431 | 1309 ft | 2 kts | 341° |
| 2026-05-04 15:20 | 48.68875 | 9.19440 | 1307 ft | 2 kts | 334° |
| 2026-05-04 15:20 | 48.68861 | 9.19453 | 1306 ft | 2 kts | 313° |
| 2026-05-04 15:20 | 48.68854 | 9.19475 | 1304 ft | 2 kts | 266° |
| 2026-05-04 15:21 | 48.68856 | 9.19493 | 1304 ft | 1 kts | 251° |
| 2026-05-04 15:21 | 48.68857 | 9.19495 | 1304 ft | 0 kts | 250° |
| 2026-05-04 15:24 | 48.68850 | 9.19463 | 1305 ft | 10 kts | 254° |
| 2026-05-04 15:24 | 48.68779 | 9.19229 | 1313 ft | 9 kts | 194° |
| 2026-05-04 15:25 | 48.68657 | 9.19273 | 1307 ft | 12 kts | 105° |
| 2026-05-04 15:25 | 48.68664 | 9.19368 | 1303 ft | 15 kts | 75° |
| 2026-05-04 15:25 | 48.68714 | 9.19630 | 1291 ft | 23 kts | 74° |
| 2026-05-04 15:26 | 48.68675 | 9.19990 | 1288 ft | 0 kts | 165° |
| 2026-05-04 15:28 | 48.68641 | 9.20013 | 1288 ft | 12 kts | 152° |
| 2026-05-04 15:28 | 48.68593 | 9.20099 | 1284 ft | 0 kts | 102° |
| 2026-05-04 15:29 | 48.68597 | 9.20142 | 1283 ft | 26 kts | 82° |
| 2026-05-04 15:30 | 48.69910 | 9.26951 | 2586 ft | 255 kts | 73° |
| 2026-05-04 15:30 | 48.71262 | 9.34309 | 4636 ft | 239 kts | 72° |
| 2026-05-04 15:31 | 48.72205 | 9.39203 | 4985 ft | 243 kts | 71° |
| 2026-05-04 15:31 | 48.73064 | 9.41369 | 4998 ft | 242 kts | 41° |
| 2026-05-04 15:32 | 48.77941 | 9.43383 | 4987 ft | 247 kts | 356° |
| 2026-05-04 15:32 | 48.81155 | 9.41640 | 5013 ft | 247 kts | 334° |
| 2026-05-04 15:33 | 48.84230 | 9.39288 | 5948 ft | 258 kts | 333° |
| 2026-05-04 15:34 | 48.89487 | 9.35372 | 7679 ft | 303 kts | 333° |
| 2026-05-04 15:34 | 48.91426 | 9.33971 | 8247 ft | 315 kts | 338° |
| 2026-05-04 15:34 | 48.95858 | 9.33404 | 9391 ft | 326 kts | 1° |
| 2026-05-04 15:35 | 49.00426 | 9.33614 | 10485 ft | 333 kts | 0° |
| 2026-05-04 15:35 | 49.02746 | 9.33702 | 11022 ft | 334 kts | 0° |
| 2026-05-04 15:35 | 49.05075 | 9.33771 | 11570 ft | 335 kts | 359° |
| 2026-05-04 15:36 | 49.09751 | 9.33870 | 12687 ft | 336 kts | 359° |
| 2026-05-04 15:36 | 49.12089 | 9.33908 | 13257 ft | 336 kts | 359° |
| 2026-05-04 15:36 | 49.14435 | 9.33941 | 13832 ft | 339 kts | 359° |
| 2026-05-04 15:37 | 49.16828 | 9.33971 | 13953 ft | 346 kts | 359° |
| 2026-05-04 15:37 | 49.19244 | 9.34001 | 13968 ft | 346 kts | 359° |
| 2026-05-04 15:37 | 49.21652 | 9.34031 | 13967 ft | 344 kts | 359° |
| 2026-05-04 15:37 | 49.24050 | 9.34060 | 13969 ft | 345 kts | 359° |
| 2026-05-04 15:38 | 49.26448 | 9.34089 | 13980 ft | 346 kts | 359° |
| 2026-05-04 15:38 | 49.28853 | 9.34119 | 13978 ft | 346 kts | 359° |
| 2026-05-04 15:38 | 49.31266 | 9.34148 | 13979 ft | 347 kts | 359° |
| 2026-05-04 15:38 | 49.33679 | 9.34177 | 13980 ft | 347 kts | 359° |
| 2026-05-04 15:39 | 49.36094 | 9.34207 | 13972 ft | 347 kts | 359° |
| 2026-05-04 15:39 | 49.38481 | 9.34236 | 13976 ft | 347 kts | 359° |
| 2026-05-04 15:39 | 49.43307 | 9.34294 | 13969 ft | 347 kts | 359° |
| 2026-05-04 15:40 | 49.45724 | 9.34325 | 13970 ft | 346 kts | 359° |
| 2026-05-04 15:40 | 49.48134 | 9.34354 | 13975 ft | 346 kts | 359° |
| 2026-05-04 15:40 | 49.50539 | 9.34383 | 13977 ft | 345 kts | 359° |
| 2026-05-04 15:40 | 49.52939 | 9.34412 | 13984 ft | 345 kts | 359° |
| 2026-05-04 15:41 | 49.55345 | 9.34438 | 13983 ft | 345 kts | 359° |
| 2026-05-04 15:41 | 49.57750 | 9.34467 | 13976 ft | 345 kts | 359° |
| 2026-05-04 15:41 | 49.60146 | 9.34496 | 13975 ft | 345 kts | 359° |
| 2026-05-04 15:41 | 49.62553 | 9.34525 | 13977 ft | 345 kts | 359° |
| 2026-05-04 15:42 | 49.64949 | 9.34554 | 13980 ft | 344 kts | 359° |
| 2026-05-04 15:42 | 49.67320 | 9.34583 | 13990 ft | 344 kts | 359° |
| 2026-05-04 15:42 | 49.69747 | 9.34612 | 13980 ft | 345 kts | 359° |
| 2026-05-04 15:42 | 49.72122 | 9.34638 | 13977 ft | 346 kts | 359° |
| 2026-05-04 15:43 | 49.74534 | 9.34666 | 13980 ft | 346 kts | 359° |
| 2026-05-04 15:43 | 49.76940 | 9.34695 | 13974 ft | 346 kts | 359° |
| 2026-05-04 15:43 | 49.79344 | 9.34726 | 13979 ft | 346 kts | 359° |
| 2026-05-04 15:43 | 49.81758 | 9.34742 | 13972 ft | 342 kts | 356° |
| 2026-05-04 15:44 | 49.84019 | 9.33953 | 13968 ft | 327 kts | 333° |
| 2026-05-04 15:44 | 49.85857 | 9.32001 | 13891 ft | 318 kts | 313° |
| 2026-05-04 15:44 | 49.87195 | 9.29274 | 13422 ft | 319 kts | 294° |
| 2026-05-04 15:44 | 49.87978 | 9.26076 | 12978 ft | 317 kts | 284° |
| 2026-05-04 15:45 | 49.88595 | 9.22833 | 12518 ft | 318 kts | 283° |
| 2026-05-04 15:45 | 49.89196 | 9.19526 | 12054 ft | 319 kts | 283° |
| 2026-05-04 15:45 | 49.89803 | 9.16214 | 11612 ft | 320 kts | 283° |
| 2026-05-04 15:45 | 49.90425 | 9.12886 | 11167 ft | 321 kts | 283° |
| 2026-05-04 15:46 | 49.91059 | 9.09549 | 10716 ft | 322 kts | 283° |
| 2026-05-04 15:46 | 49.91695 | 9.06215 | 10278 ft | 322 kts | 283° |
| 2026-05-04 15:46 | 49.92329 | 9.02878 | 9849 ft | 322 kts | 283° |
| 2026-05-04 15:46 | 49.92960 | 8.99534 | 9385 ft | 323 kts | 283° |
| 2026-05-04 15:47 | 49.93665 | 8.96215 | 8891 ft | 325 kts | 293° |
| 2026-05-04 15:47 | 49.95038 | 8.93428 | 8414 ft | 327 kts | 318° |
| 2026-05-04 15:47 | 49.97011 | 8.91771 | 8028 ft | 320 kts | 342° |
| 2026-05-04 15:47 | 49.99149 | 8.91352 | 7968 ft | 302 kts | 0° |
| 2026-05-04 15:48 | 50.01186 | 8.91812 | 7959 ft | 298 kts | 22° |
| 2026-05-04 15:48 | 50.02901 | 8.93567 | 7963 ft | 295 kts | 47° |
| 2026-05-04 15:48 | 50.04795 | 8.99248 | 7329 ft | 300 kts | 73° |
| 2026-05-04 15:49 | 50.05473 | 9.02269 | 6983 ft | 299 kts | 73° |
| 2026-05-04 15:49 | 50.06164 | 9.05317 | 6637 ft | 298 kts | 72° |
| 2026-05-04 15:49 | 50.06861 | 9.08352 | 6306 ft | 297 kts | 72° |
| 2026-05-04 15:49 | 50.07563 | 9.11383 | 6008 ft | 295 kts | 71° |
| 2026-05-04 15:50 | 50.08247 | 9.14322 | 5961 ft | 282 kts | 71° |
| 2026-05-04 15:50 | 50.08895 | 9.17100 | 5953 ft | 264 kts | 72° |
| 2026-05-04 15:50 | 50.09503 | 9.19708 | 5961 ft | 251 kts | 72° |
| 2026-05-04 15:50 | 50.10093 | 9.22252 | 5963 ft | 249 kts | 72° |
| 2026-05-04 15:51 | 50.10683 | 9.24802 | 5969 ft | 251 kts | 72° |
| 2026-05-04 15:51 | 50.11278 | 9.27372 | 5979 ft | 252 kts | 72° |
| 2026-05-04 15:51 | 50.11872 | 9.29939 | 5973 ft | 252 kts | 72° |
| 2026-05-04 15:51 | 50.12457 | 9.32473 | 5968 ft | 251 kts | 72° |
| 2026-05-04 15:52 | 50.13044 | 9.35021 | 5967 ft | 249 kts | 72° |
| 2026-05-04 15:52 | 50.13633 | 9.37553 | 5960 ft | 247 kts | 69° |
| 2026-05-04 15:52 | 50.14557 | 9.39791 | 5968 ft | 247 kts | 44° |
| 2026-05-04 15:52 | 50.15987 | 9.41274 | 5974 ft | 250 kts | 21° |
| 2026-05-04 15:53 | 50.17579 | 9.42461 | 5966 ft | 258 kts | 34° |
| 2026-05-04 15:53 | 50.18891 | 9.44321 | 5960 ft | 253 kts | 55° |
| 2026-05-04 15:53 | 50.19652 | 9.46755 | 5995 ft | 248 kts | 79° |
| 2026-05-04 15:53 | 50.20014 | 9.49393 | 5940 ft | 252 kts | 70° |
| 2026-05-04 15:54 | 50.20919 | 9.51690 | 5957 ft | 248 kts | 46° |
| 2026-05-04 15:54 | 50.22319 | 9.53247 | 5807 ft | 250 kts | 22° |
| 2026-05-04 15:54 | 50.23996 | 9.53839 | 5526 ft | 252 kts | 358° |
| 2026-05-04 15:54 | 50.25701 | 9.53360 | 5276 ft | 248 kts | 334° |
| 2026-05-04 15:55 | 50.27107 | 9.51908 | 5000 ft | 239 kts | 311° |
| 2026-05-04 15:55 | 50.27972 | 9.49768 | 4708 ft | 230 kts | 287° |
| 2026-05-04 15:55 | 50.28174 | 9.47346 | 4422 ft | 223 kts | 266° |
| 2026-05-04 15:55 | 50.27821 | 9.45012 | 4149 ft | 220 kts | 251° |
| 2026-05-04 15:56 | 50.27272 | 9.42805 | 3875 ft | 216 kts | 250° |
| 2026-05-04 15:56 | 50.26712 | 9.40642 | 3586 ft | 214 kts | 250° |
| 2026-05-04 15:56 | 50.26165 | 9.38541 | 3486 ft | 203 kts | 250° |
| 2026-05-04 15:56 | 50.25635 | 9.36529 | 3486 ft | 197 kts | 250° |
| 2026-05-04 15:57 | 50.25123 | 9.34573 | 3492 ft | 196 kts | 250° |
| 2026-05-04 15:57 | 50.24597 | 9.32554 | 3512 ft | 203 kts | 250° |
| 2026-05-04 15:57 | 50.24061 | 9.30527 | 3494 ft | 208 kts | 246° |
| 2026-05-04 15:57 | 50.23381 | 9.28533 | 3493 ft | 208 kts | 243° |
| 2026-05-04 15:58 | 50.22678 | 9.26565 | 3475 ft | 206 kts | 243° |
| 2026-05-04 15:58 | 50.21973 | 9.24638 | 3479 ft | 204 kts | 243° |
| 2026-05-04 15:58 | 50.21268 | 9.22735 | 3491 ft | 201 kts | 243° |
| 2026-05-04 15:58 | 50.20571 | 9.20843 | 3483 ft | 202 kts | 243° |
| 2026-05-04 15:59 | 50.19871 | 9.18940 | 3509 ft | 201 kts | 243° |
| 2026-05-04 15:59 | 50.19168 | 9.17041 | 3496 ft | 203 kts | 241° |
| 2026-05-04 15:59 | 50.18222 | 9.15394 | 3495 ft | 205 kts | 223° |
| 2026-05-04 15:59 | 50.17234 | 9.13811 | 3496 ft | 204 kts | 238° |
| 2026-05-04 16:00 | 50.16475 | 9.11924 | 3484 ft | 206 kts | 248° |
| 2026-05-04 16:00 | 50.15985 | 9.09837 | 3489 ft | 206 kts | 253° |
| 2026-05-04 16:00 | 50.15511 | 9.07719 | 3479 ft | 206 kts | 253° |
| 2026-05-04 16:00 | 50.15064 | 9.05635 | 3483 ft | 201 kts | 255° |
| 2026-05-04 16:01 | 50.14685 | 9.03536 | 3481 ft | 202 kts | 257° |
| 2026-05-04 16:01 | 50.14309 | 9.01389 | 3494 ft | 208 kts | 257° |
| 2026-05-04 16:01 | 50.13926 | 8.99206 | 3478 ft | 207 kts | 256° |
| 2026-05-04 16:01 | 50.13551 | 8.97073 | 3476 ft | 201 kts | 257° |
| 2026-05-04 16:02 | 50.13197 | 8.95064 | 3478 ft | 183 kts | 257° |
| 2026-05-04 16:02 | 50.12865 | 8.93209 | 3471 ft | 173 kts | 257° |
| 2026-05-04 16:02 | 50.12196 | 8.89489 | 3515 ft | 187 kts | 257° |
| 2026-05-04 16:03 | 50.11848 | 8.87536 | 3478 ft | 183 kts | 256° |
| 2026-05-04 16:03 | 50.11522 | 8.85688 | 3479 ft | 172 kts | 257° |
| 2026-05-04 16:03 | 50.11211 | 8.83919 | 3486 ft | 167 kts | 257° |
| 2026-05-04 16:03 | 50.10897 | 8.82142 | 3516 ft | 172 kts | 256° |
| 2026-05-04 16:04 | 50.10582 | 8.80335 | 3499 ft | 175 kts | 256° |
| 2026-05-04 16:04 | 50.09952 | 8.76649 | 3496 ft | 177 kts | 257° |
| 2026-05-04 16:04 | 50.09637 | 8.74771 | 3420 ft | 184 kts | 255° |
| 2026-05-04 16:05 | 50.09233 | 8.72842 | 3169 ft | 189 kts | 253° |
| 2026-05-04 16:05 | 50.08783 | 8.70887 | 2883 ft | 194 kts | 252° |
| 2026-05-04 16:05 | 50.07836 | 8.66930 | 2364 ft | 194 kts | 252° |
| 2026-05-04 16:06 | 50.07370 | 8.64994 | 2060 ft | 191 kts | 252° |
| 2026-05-04 16:06 | 50.06211 | 8.60173 | 1439 ft | 156 kts | 251° |
| 2026-05-04 16:07 | 50.05694 | 8.58108 | 1185 ft | 157 kts | 250° |
| 2026-05-04 16:07 | 50.04683 | 8.53816 | 412 ft | 116 kts | 255° |
| 2026-05-04 16:08 | 50.04416 | 8.52665 | 355 ft | 99 kts | 249° |
| 2026-05-04 16:08 | 50.03997 | 8.51397 | 335 ft | 0 kts | 220° |
| 2026-05-04 16:09 | 50.03996 | 8.51396 | 335 ft | 0 kts | 219° |